Time;durP1;ratioP1;P1;durP2;ratioP2;P2;SDS_P1;SDS_P2;PMS_P1;PMS_P2;Temp;Humidity;BMP_temperature;BMP_pressure;BME280_temperature;BME280_humidity;BME280_pressure;Samples;Min_cycle;Max_cycle;Signal;HPM_P1;HPM_P2
2023/10/10 00:01:43;;;;;;;2.33;1.53;;;22.70;63.40;;;;;;5090709;28;20427;-77
2023/10/10 00:04:12;;;;;;;3.70;2.03;;;22.70;63.30;;;;;;5077409;28;20880;-77
2023/10/10 00:06:40;;;;;;;2.03;1.90;;;22.70;63.40;;;;;;5090167;28;20448;-77
2023/10/10 00:09:11;;;;;;;3.70;2.20;;;22.70;63.30;;;;;;5088767;28;20524;-77
2023/10/10 00:11:47;;;;;;;1.90;1.80;;;22.70;63.30;;;;;;5088302;28;20476;-78
2023/10/10 00:14:18;;;;;;;5.53;1.70;;;22.70;63.40;;;;;;5080129;28;20559;-77
2023/10/10 00:16:47;;;;;;;2.00;1.90;;;22.70;63.40;;;;;;5083882;28;20469;-77
2023/10/10 00:19:21;;;;;;;2.93;1.93;;;22.70;63.40;;;;;;5080306;28;20499;-77
2023/10/10 00:21:50;;;;;;;2.30;2.10;;;22.70;63.50;;;;;;5076338;28;20548;-77
2023/10/10 00:24:20;;;;;;;4.70;2.20;;;22.60;63.50;;;;;;5082006;28;20487;-77
2023/10/10 00:26:49;;;;;;;2.10;1.90;;;22.60;63.40;;;;;;5085882;28;20461;-77
2023/10/10 00:29:18;;;;;;;3.20;2.70;;;22.60;63.30;;;;;;5084409;28;20435;-77
2023/10/10 00:31:55;;;;;;;3.40;3.10;;;22.60;63.50;;;;;;5086861;28;20473;-77
2023/10/10 00:34:27;;;;;;;3.93;3.50;;;22.60;63.40;;;;;;5087229;28;20416;-78
2023/10/10 00:37:02;;;;;;;2.83;2.50;;;22.60;63.40;;;;;;5099668;28;20849;-77
2023/10/10 00:39:35;;;;;;;3.30;3.00;;;22.60;63.40;;;;;;5093134;28;20487;-77
2023/10/10 00:42:05;;;;;;;3.43;3.13;;;22.60;63.20;;;;;;5090043;28;20445;-77
2023/10/10 00:44:37;;;;;;;4.33;3.10;;;22.60;63.40;;;;;;5086102;28;20411;-76
2023/10/10 00:47:12;;;;;;;4.13;3.20;;;22.60;63.50;;;;;;5084389;28;20510;-77
2023/10/10 00:49:43;;;;;;;3.93;3.53;;;22.60;63.50;;;;;;5081721;28;20437;-76
2023/10/10 00:52:12;;;;;;;3.33;3.03;;;22.60;63.20;;;;;;5083552;28;20535;-77
2023/10/10 00:54:45;;;;;;;5.23;3.90;;;22.60;63.60;;;;;;5082377;28;20762;-76
2023/10/10 00:57:15;;;;;;;5.00;4.30;;;22.60;63.60;;;;;;5085904;28;20497;-76
2023/10/10 00:59:43;;;;;;;4.33;3.67;;;22.60;63.30;;;;;;5078543;28;20442;-76
2023/10/10 01:02:12;;;;;;;4.30;3.73;;;22.60;63.60;;;;;;5084477;28;20445;-77
2023/10/10 01:04:48;;;;;;;4.23;3.83;;;22.60;63.60;;;;;;5085377;28;20459;-77
2023/10/10 01:07:19;;;;;;;5.77;4.07;;;22.60;63.40;;;;;;5089881;28;20522;-77
2023/10/10 01:09:58;;;;;;;4.30;3.70;;;22.60;63.60;;;;;;5082252;28;20472;-77
2023/10/10 01:12:28;;;;;;;3.80;3.37;;;22.50;63.40;;;;;;5081311;28;20932;-76
2023/10/10 01:14:57;;;;;;;4.20;3.73;;;22.50;63.40;;;;;;5084522;28;20408;-77
2023/10/10 01:17:30;;;;;;;5.17;4.17;;;22.50;63.40;;;;;;5085117;28;20957;-77
2023/10/10 01:20:09;;;;;;;4.13;3.83;;;22.50;63.50;;;;;;5091971;28;20471;-77
2023/10/10 01:22:46;;;;;;;5.93;3.87;;;22.60;63.70;;;;;;5085103;28;20432;-77
2023/10/10 01:28:13;;;;;;;6.10;3.90;;;22.50;63.50;;;;;;5066655;28;20523;-77
2023/10/10 01:30:58;;;;;;;5.40;3.60;;;22.50;63.60;;;;;;5081373;28;20529;-77
2023/10/10 01:33:35;;;;;;;4.77;3.53;;;22.50;63.60;;;;;;5087617;28;20444;-77
2023/10/10 01:36:11;;;;;;;4.83;4.00;;;22.50;63.60;;;;;;5082024;28;20476;-76
2023/10/10 01:39:19;;;;;;;5.03;4.00;;;22.50;63.50;;;;;;5088552;28;20447;-77
2023/10/10 01:41:49;;;;;;;4.57;3.63;;;22.50;63.50;;;;;;5079339;28;20403;-77
2023/10/10 01:44:22;;;;;;;6.17;4.10;;;22.50;63.60;;;;;;5092472;28;20407;-77
2023/10/10 01:46:51;;;;;;;5.00;4.17;;;22.50;63.70;;;;;;5097289;28;20452;-77
2023/10/10 01:49:21;;;;;;;4.57;4.10;;;22.50;63.60;;;;;;5089053;28;20451;-77
2023/10/10 01:51:54;;;;;;;3.93;3.60;;;22.50;63.60;;;;;;5091399;28;20502;-77
2023/10/10 01:54:34;;;;;;;4.33;3.60;;;22.50;63.50;;;;;;5095967;28;20494;-76
2023/10/10 01:57:06;;;;;;;3.87;3.53;;;22.50;63.50;;;;;;5089460;28;20439;-76
2023/10/10 01:59:35;;;;;;;4.47;3.70;;;22.50;63.60;;;;;;5095006;28;20514;-77
2023/10/10 02:02:08;;;;;;;4.10;3.70;;;22.50;63.60;;;;;;5083142;28;20467;-77
2023/10/10 02:04:39;;;;;;;3.60;3.30;;;22.50;63.50;;;;;;5089861;28;20427;-77
2023/10/10 02:07:14;;;;;;;3.70;3.40;;;22.50;63.60;;;;;;5085867;28;20559;-77
2023/10/10 02:09:53;;;;;;;6.07;4.10;;;22.50;63.50;;;;;;5085092;28;20475;-77
2023/10/10 02:12:22;;;;;;;4.20;3.80;;;22.50;63.60;;;;;;5087737;28;20476;-76
2023/10/10 02:14:50;;;;;;;5.00;3.63;;;22.50;63.30;;;;;;5075475;28;20421;-77
2023/10/10 02:17:24;;;;;;;4.10;3.70;;;22.50;63.40;;;;;;5081979;28;20534;-77
2023/10/10 02:19:59;;;;;;;4.60;3.93;;;22.50;63.50;;;;;;5081951;28;20451;-77
2023/10/10 02:22:47;;;;;;;3.67;3.37;;;22.50;63.50;;;;;;5090927;28;20444;-77
2023/10/10 02:28:03;;;;;;;4.50;4.10;;;22.50;63.40;;;;;;5077900;28;20545;-77
2023/10/10 02:30:35;;;;;;;4.53;3.83;;;22.50;63.50;;;;;;5091143;28;20445;-77
2023/10/10 02:33:15;;;;;;;3.70;3.40;;;22.50;63.40;;;;;;5085635;28;20512;-77
2023/10/10 02:35:55;;;;;;;4.03;3.50;;;22.50;63.60;;;;;;5081925;28;20861;-77
2023/10/10 02:38:31;;;;;;;3.70;3.40;;;22.50;63.60;;;;;;5084305;28;20404;-77
2023/10/10 02:44:01;;;;;;;4.27;3.20;;;22.50;63.60;;;;;;5082845;28;20474;-77
2023/10/10 02:46:35;;;;;;;4.27;3.60;;;22.50;63.70;;;;;;5087715;28;20439;-77
2023/10/10 02:49:12;;;;;;;3.20;3.00;;;22.50;63.70;;;;;;5080645;28;20426;-77
2023/10/10 02:51:43;;;;;;;3.70;3.33;;;22.50;63.70;;;;;;5083872;28;20472;-77
2023/10/10 02:54:27;;;;;;;3.23;3.03;;;22.50;63.60;;;;;;5091374;28;20456;-77
2023/10/10 02:56:57;;;;;;;3.23;2.93;;;22.50;63.60;;;;;;5082971;28;20461;-77
2023/10/10 02:59:30;;;;;;;4.97;3.30;;;22.50;63.50;;;;;;5083035;28;20442;-77
2023/10/10 03:02:04;;;;;;;3.33;3.00;;;22.50;63.50;;;;;;5086235;28;20412;-77
2023/10/10 03:07:27;;;;;;;3.10;2.90;;;22.50;63.60;;;;;;5091472;28;20551;-77
2023/10/10 03:10:22;;;;;;;3.20;2.90;;;22.50;63.60;;;;;;5083528;28;20535;-77
2023/10/10 03:13:04;;;;;;;3.70;3.40;;;22.50;63.60;;;;;;5076774;28;20449;-77
2023/10/10 03:15:33;;;;;;;3.60;3.30;;;22.50;63.50;;;;;;5081117;28;20418;-77
2023/10/10 03:18:27;;;;;;;4.03;3.63;;;22.50;63.60;;;;;;5080431;28;20502;-76
2023/10/10 03:21:12;;;;;;;3.30;3.00;;;22.50;63.40;;;;;;5079455;28;20411;-77
2023/10/10 03:23:54;;;;;;;3.60;3.30;;;22.50;63.60;;;;;;5080702;28;20440;-77
2023/10/10 03:26:32;;;;;;;3.17;2.97;;;22.50;63.70;;;;;;5078069;28;20622;-76
2023/10/10 03:29:04;;;;;;;3.63;3.07;;;22.50;63.70;;;;;;5091678;28;20445;-77
2023/10/10 03:31:39;;;;;;;3.10;2.90;;;22.50;63.70;;;;;;5080859;28;20447;-77
2023/10/10 03:34:20;;;;;;;3.30;3.00;;;22.50;63.70;;;;;;5078011;28;20480;-77
2023/10/10 03:37:04;;;;;;;2.90;2.70;;;22.50;63.80;;;;;;5088149;28;20525;-77
2023/10/10 05:25:25;;;;;;;2.60;2.40;;;22.50;64.00;;;;;;5083881;28;20440;-77
2023/10/10 05:27:58;;;;;;;2.67;2.47;;;22.50;64.00;;;;;;5089542;28;20442;-77
2023/10/10 05:30:27;;;;;;;2.27;2.17;;;22.50;64.10;;;;;;5092798;28;20444;-77
2023/10/10 05:33:01;;;;;;;2.43;2.33;;;22.50;64.10;;;;;;5085724;28;20559;-77
2023/10/10 05:35:30;;;;;;;2.10;2.00;;;22.50;63.90;;;;;;5090132;28;20485;-77
2023/10/10 05:38:00;;;;;;;4.00;2.30;;;22.50;64.00;;;;;;5087930;28;20460;-79
2023/10/10 05:40:33;;;;;;;1.90;1.80;;;22.50;63.80;;;;;;5094299;28;20438;-79
2023/10/10 05:43:15;;;;;;;2.50;2.07;;;22.60;63.90;;;;;;5097300;28;20490;-78
2023/10/10 05:45:45;;;;;;;2.57;2.37;;;22.50;63.80;;;;;;5091269;28;20475;-79
2023/10/10 05:48:15;;;;;;;2.80;2.30;;;22.60;63.80;;;;;;5097181;28;20508;-79
2023/10/10 05:50:43;;;;;;;2.27;2.10;;;22.50;63.70;;;;;;5102890;28;20476;-79
2023/10/10 05:53:12;;;;;;;3.10;2.47;;;22.60;63.90;;;;;;5086070;28;20469;-76
2023/10/10 05:55:43;;;;;;;3.93;2.30;;;22.50;63.90;;;;;;5088751;28;20460;-76
2023/10/10 05:58:12;;;;;;;2.60;2.43;;;22.60;64.00;;;;;;5088047;28;20440;-77
2023/10/10 06:00:44;;;;;;;2.30;2.20;;;22.60;63.80;;;;;;5088919;28;20449;-79
2023/10/10 06:03:13;;;;;;;2.27;2.17;;;22.60;63.90;;;;;;5090015;28;20441;-79
2023/10/10 06:05:44;;;;;;;4.00;2.53;;;22.60;63.80;;;;;;5093671;28;20543;-79
2023/10/10 06:08:12;;;;;;;2.10;2.00;;;22.60;63.90;;;;;;5098747;28;20500;-78
2023/10/10 06:10:48;;;;;;;2.40;2.20;;;22.60;63.70;;;;;;5100420;28;20444;-78
2023/10/10 06:13:19;;;;;;;2.23;2.03;;;22.60;63.80;;;;;;5096016;28;20467;-79
2023/10/10 06:15:50;;;;;;;2.43;2.23;;;22.60;63.60;;;;;;5099826;28;20441;-78
2023/10/10 06:18:18;;;;;;;2.50;2.30;;;22.60;63.80;;;;;;5087019;28;20826;-78
2023/10/10 06:20:47;;;;;;;3.30;2.50;;;22.60;63.70;;;;;;5083696;28;20897;-78
2023/10/10 06:23:35;;;;;;;3.53;2.10;;;22.70;63.70;;;;;;5079625;28;20419;-77
2023/10/10 06:26:06;;;;;;;3.77;2.23;;;22.70;63.60;;;;;;5080462;28;20461;-77
2023/10/10 06:28:45;;;;;;;2.20;2.10;;;22.70;64.40;;;;;;5090305;28;20433;-77
2023/10/10 06:31:17;;;;;;;2.13;2.03;;;22.60;63.60;;;;;;5089428;28;20440;-77
2023/10/10 06:33:48;;;;;;;2.50;2.30;;;22.70;63.70;;;;;;5082022;28;20468;-77
2023/10/10 06:36:32;;;;;;;2.20;1.93;;;22.70;63.60;;;;;;5092386;28;20469;-77
2023/10/10 06:39:18;;;;;;;2.40;2.20;;;22.70;63.60;;;;;;5085989;28;20442;-76
2023/10/10 06:41:50;;;;;;;2.63;2.43;;;22.70;63.50;;;;;;5090089;28;20462;-76
2023/10/10 06:44:31;;;;;;;2.50;2.30;;;22.80;63.70;;;;;;5080863;28;20418;-76
2023/10/10 06:47:08;;;;;;;3.90;2.90;;;22.80;63.60;;;;;;5088636;28;20457;-76
2023/10/10 06:49:54;;;;;;;2.43;2.10;;;22.80;63.40;;;;;;5099824;28;20482;-77
2023/10/10 06:52:27;;;;;;;2.50;2.40;;;22.80;63.40;;;;;;5094693;28;20475;-76
2023/10/10 06:54:56;;;;;;;3.10;2.90;;;22.80;63.50;;;;;;5088361;28;20444;-76
2023/10/10 07:00:21;;;;;;;2.70;2.60;;;22.80;63.40;;;;;;5093611;28;20502;-75
2023/10/10 07:02:52;;;;;;;2.57;2.37;;;22.80;63.40;;;;;;5091840;28;20456;-76
2023/10/10 07:05:20;;;;;;;2.53;2.40;;;22.80;63.50;;;;;;5091737;28;20441;-76
2023/10/10 07:07:53;;;;;;;3.30;2.87;;;22.80;63.50;;;;;;5076043;28;20463;-75
2023/10/10 07:10:26;;;;;;;3.20;2.80;;;22.90;63.60;;;;;;5082639;28;20883;-75
2023/10/10 07:12:57;;;;;;;6.00;2.33;;;22.90;63.60;;;;;;5083794;28;20970;-75
2023/10/10 07:15:26;;;;;;;3.03;2.83;;;22.90;63.40;;;;;;5090506;28;20488;-76
2023/10/10 07:18:08;;;;;;;2.67;2.47;;;22.90;63.40;;;;;;5091198;28;20441;-75
2023/10/10 07:23:22;;;;;;;2.77;2.67;;;23.00;63.40;;;;;;5092436;28;20545;-78
2023/10/10 07:25:59;;;;;;;3.63;3.33;;;22.90;63.10;;;;;;5090539;28;20472;-77
2023/10/10 07:28:36;;;;;;;3.33;2.97;;;23.00;63.40;;;;;;5095544;28;20448;-78
2023/10/10 07:31:07;;;;;;;3.10;2.90;;;23.00;63.40;;;;;;5100808;28;20431;-79
2023/10/10 07:33:41;;;;;;;3.63;3.33;;;23.00;63.40;;;;;;5092635;28;20461;-79
2023/10/10 07:36:13;;;;;;;3.40;3.10;;;23.00;63.40;;;;;;5089108;28;20518;-79
2023/10/10 07:38:41;;;;;;;4.03;2.83;;;23.00;63.20;;;;;;5091488;28;20459;-79
2023/10/10 07:41:09;;;;;;;5.93;3.27;;;23.10;63.40;;;;;;5097679;28;20459;-77
2023/10/10 07:43:38;;;;;;;2.87;2.67;;;23.10;63.40;;;;;;5095132;28;20438;-78
2023/10/10 07:46:18;;;;;;;3.50;3.20;;;23.20;63.20;;;;;;5094462;28;20463;-77
2023/10/10 07:48:46;;;;;;;3.80;2.90;;;23.20;63.20;;;;;;5088867;28;20471;-76
2023/10/10 07:51:27;;;;;;;3.43;3.13;;;23.30;62.90;;;;;;5089428;28;20442;-76
2023/10/10 07:54:02;;;;;;;3.10;2.90;;;23.30;62.80;;;;;;5087713;28;20522;-77
2023/10/10 07:56:31;;;;;;;3.40;3.10;;;23.30;62.70;;;;;;5097791;28;20464;-78
2023/10/10 07:59:05;;;;;;;3.40;3.13;;;23.30;62.60;;;;;;5084801;28;20449;-78
2023/10/10 08:01:37;;;;;;;3.40;3.10;;;23.40;62.70;;;;;;5098055;28;20919;-78
2023/10/10 08:04:12;;;;;;;4.03;3.57;;;23.40;62.60;;;;;;5084184;28;20441;-78
2023/10/10 08:06:45;;;;;;;3.67;3.47;;;23.40;62.60;;;;;;5095571;28;20476;-77
2023/10/10 08:09:20;;;;;;;3.60;3.30;;;23.50;62.60;;;;;;5094687;28;20513;-78
2023/10/10 08:11:54;;;;;;;3.90;3.50;;;23.50;62.70;;;;;;5096401;28;20437;-77
2023/10/10 08:14:30;;;;;;;3.90;3.60;;;23.50;62.60;;;;;;5097454;28;20467;-76
2023/10/10 08:17:02;;;;;;;3.77;3.47;;;23.70;63.00;;;;;;5085989;28;20501;-77
2023/10/10 08:19:33;;;;;;;4.87;3.80;;;23.70;62.70;;;;;;5091659;28;20435;-77
2023/10/10 08:22:12;;;;;;;3.53;3.23;;;23.70;62.90;;;;;;5087005;28;20444;-78
2023/10/10 08:24:43;;;;;;;8.50;3.40;;;23.80;63.00;;;;;;5084247;28;20448;-77
2023/10/10 08:27:12;;;;;;;4.07;3.43;;;23.90;63.50;;;;;;5085942;28;20465;-76
2023/10/10 08:29:42;;;;;;;3.57;3.27;;;24.10;63.90;;;;;;5086316;28;20451;-76
2023/10/10 08:32:12;;;;;;;3.43;3.20;;;24.30;64.10;;;;;;5084270;28;20422;-75
2023/10/10 08:34:42;;;;;;;3.73;3.43;;;24.40;63.80;;;;;;5092915;28;20475;-76
2023/10/10 08:37:11;;;;;;;3.73;3.40;;;24.60;63.60;;;;;;5088130;28;20563;-76
2023/10/10 08:39:39;;;;;;;3.83;3.53;;;24.70;63.70;;;;;;5089416;28;20492;-75
2023/10/10 08:42:10;;;;;;;5.00;3.73;;;24.80;63.90;;;;;;5085680;28;20428;-75
2023/10/10 08:44:41;;;;;;;3.43;3.13;;;24.80;63.40;;;;;;5083563;28;20471;-75
2023/10/10 08:47:16;;;;;;;4.20;3.40;;;24.90;63.50;;;;;;5094700;28;20468;-75
2023/10/10 08:49:47;;;;;;;3.30;3.10;;;25.00;63.70;;;;;;5090939;28;20444;-77
2023/10/10 08:52:17;;;;;;;4.03;3.53;;;25.10;63.90;;;;;;5092816;28;20452;-77
2023/10/10 08:54:45;;;;;;;3.63;3.33;;;25.30;64.10;;;;;;5091088;28;20443;-77
2023/10/10 08:57:24;;;;;;;3.63;3.33;;;25.40;64.10;;;;;;5085221;28;20555;-78
2023/10/10 08:59:55;;;;;;;4.13;3.30;;;25.60;63.90;;;;;;5086424;28;20471;-78
2023/10/10 09:02:23;;;;;;;5.27;3.60;;;25.70;63.70;;;;;;5097480;28;20438;-77
2023/10/10 09:04:51;;;;;;;3.77;3.57;;;25.90;63.90;;;;;;5089695;28;20422;-78
2023/10/10 09:07:27;;;;;;;3.63;3.40;;;26.10;64.30;;;;;;5093802;28;20468;-78
2023/10/10 09:10:04;;;;;;;4.07;3.50;;;26.30;64.20;;;;;;5080363;28;20439;-77
2023/10/10 09:12:34;;;;;;;3.67;3.37;;;26.50;63.80;;;;;;5087504;28;20480;-77
2023/10/10 09:15:13;;;;;;;4.27;3.73;;;26.80;63.60;;;;;;5096147;28;20447;-77
2023/10/10 09:17:42;;;;;;;3.70;3.47;;;27.00;63.80;;;;;;5099190;28;20476;-78
2023/10/10 09:20:17;;;;;;;4.33;3.30;;;27.30;63.60;;;;;;5080089;28;20504;-78
2023/10/10 09:22:51;;;;;;;4.00;3.60;;;27.50;63.20;;;;;;5081132;28;20492;-77
2023/10/10 09:25:21;;;;;;;3.60;3.40;;;27.50;62.60;;;;;;5096795;28;20420;-78
2023/10/10 09:27:58;;;;;;;4.00;3.67;;;27.40;62.40;;;;;;5086795;28;20436;-78
2023/10/10 09:30:32;;;;;;;4.07;3.77;;;27.30;62.50;;;;;;5094106;28;20440;-77
2023/10/10 09:33:13;;;;;;;4.50;3.20;;;27.20;62.70;;;;;;5094215;28;20527;-77
2023/10/10 09:35:48;;;;;;;3.50;3.20;;;27.10;62.90;;;;;;5089716;28;20476;-77
2023/10/10 09:38:20;;;;;;;4.90;3.57;;;27.00;63.00;;;;;;5090337;28;20517;-78
2023/10/10 09:40:48;;;;;;;3.80;3.50;;;26.90;63.10;;;;;;5093216;28;20423;-77
2023/10/10 09:43:24;;;;;;;3.53;3.33;;;26.80;63.30;;;;;;5097233;28;20440;-76
2023/10/10 09:45:55;;;;;;;4.60;3.40;;;26.70;63.50;;;;;;5099144;28;20440;-78
2023/10/10 09:48:59;;;;;;;4.03;3.73;;;26.60;63.60;;;;;;5084429;28;20404;-77
2023/10/10 09:52:47;;;;;;;3.77;3.50;;;26.50;63.90;;;;;;5091138;28;20502;-77
2023/10/10 09:54:25;;;;;;;3.10;2.90;;;26.40;63.90;;;;;;5090778;28;20506;-77
2023/10/10 09:56:54;;;;;;;3.40;3.20;;;26.30;64.20;;;;;;5083877;28;20442;-76
2023/10/10 09:59:28;;;;;;;6.17;3.40;;;26.30;64.40;;;;;;5083493;28;20525;-78
2023/10/10 10:02:04;;;;;;;5.40;3.70;;;26.30;64.50;;;;;;5091971;28;20419;-77
2023/10/10 10:04:38;;;;;;;4.83;3.80;;;26.20;64.40;;;;;;5094809;28;20400;-76
2023/10/10 10:07:19;;;;;;;3.40;3.10;;;26.20;64.50;;;;;;5107245;28;20423;-78
2023/10/10 10:10:16;;;;;;;4.17;3.87;;;26.20;64.50;;;;;;5104974;28;20432;-76
2023/10/10 10:12:54;;;;;;;3.80;3.50;;;26.10;64.80;;;;;;5089240;28;20529;-77
2023/10/10 10:15:28;;;;;;;4.40;3.60;;;26.10;64.80;;;;;;5095385;28;20555;-77
2023/10/10 10:18:12;;;;;;;3.77;3.47;;;26.10;64.50;;;;;;5081862;28;20416;-77
2023/10/10 10:20:46;;;;;;;4.60;4.20;;;26.10;64.70;;;;;;5089058;28;20531;-77
2023/10/10 10:23:20;;;;;;;7.53;3.60;;;26.10;64.70;;;;;;5082325;28;20420;-76
2023/10/10 10:26:04;;;;;;;5.60;4.47;;;26.00;64.60;;;;;;5090141;28;20450;-77
2023/10/10 10:28:35;;;;;;;5.90;4.20;;;25.90;64.80;;;;;;5084634;28;20472;-77
2023/10/10 10:31:07;;;;;;;4.63;4.23;;;25.80;64.70;;;;;;5090670;28;20487;-77
2023/10/10 10:33:52;;;;;;;6.53;4.37;;;25.80;65.10;;;;;;5086674;28;20522;-77
2023/10/10 10:36:26;;;;;;;6.23;5.07;;;25.70;65.10;;;;;;5075162;28;20531;-77
2023/10/10 10:41:43;;;;;;;6.50;4.67;;;25.70;65.40;;;;;;5083042;28;20467;-76
2023/10/10 10:44:13;;;;;;;5.20;4.70;;;25.60;65.40;;;;;;5089431;28;20439;-76
2023/10/10 10:46:47;;;;;;;5.73;5.23;;;25.60;65.40;;;;;;5088387;28;20427;-76
2023/10/10 10:49:22;;;;;;;7.00;5.77;;;25.50;65.30;;;;;;5087821;28;20527;-77
2023/10/10 10:52:10;;;;;;;7.00;5.53;;;25.50;65.30;;;;;;5090535;28;20421;-77
2023/10/10 10:54:41;;;;;;;9.77;5.40;;;25.50;65.50;;;;;;5087012;28;20448;-77
2023/10/10 10:57:27;;;;;;;7.30;5.60;;;25.50;65.50;;;;;;5091463;28;20459;-76
2023/10/10 11:00:27;;;;;;;7.20;5.33;;;25.60;65.50;;;;;;5085159;28;20413;-75
2023/10/10 11:02:59;;;;;;;7.73;6.00;;;25.60;65.20;;;;;;5085885;28;20491;-77
2023/10/10 11:05:30;;;;;;;6.87;6.17;;;25.70;65.10;;;;;;5085559;28;20413;-77
2023/10/10 11:08:11;;;;;;;8.70;5.70;;;25.70;64.80;;;;;;5085802;28;20433;-77
2023/10/10 11:10:45;;;;;;;8.50;6.43;;;25.70;64.80;;;;;;5087188;28;20441;-77
2023/10/10 11:13:14;;;;;;;9.60;6.07;;;25.70;65.10;;;;;;5083361;28;20441;-77
2023/10/10 11:15:42;;;;;;;8.47;6.30;;;25.90;65.30;;;;;;5082175;28;20444;-77
2023/10/10 11:18:11;;;;;;;8.70;6.23;;;26.00;64.80;;;;;;5083714;28;20519;-77
2023/10/10 11:20:56;;;;;;;10.63;6.37;;;26.20;64.50;;;;;;5084200;28;20450;-76
2023/10/10 11:23:41;;;;;;;8.17;6.43;;;26.30;64.80;;;;;;5080726;28;20483;-75
2023/10/10 11:26:14;;;;;;;9.40;6.93;;;26.30;63.30;;;;;;5091294;28;20435;-77
2023/10/10 11:28:47;;;;;;;8.03;5.97;;;26.30;63.40;;;;;;5093988;28;20424;-76
2023/10/10 11:31:24;;;;;;;7.30;6.47;;;26.30;63.90;;;;;;5090413;28;20477;-76
2023/10/10 11:34:10;;;;;;;7.10;6.13;;;26.30;63.80;;;;;;5097731;28;20427;-77
2023/10/10 11:36:40;;;;;;;8.17;6.87;;;26.30;63.90;;;;;;5087276;28;20534;-77
2023/10/10 11:39:31;;;;;;;9.77;6.60;;;26.30;63.70;;;;;;5087781;28;20416;-77
2023/10/10 11:42:03;;;;;;;8.63;7.00;;;26.20;64.10;;;;;;5083005;28;20448;-77
2023/10/10 11:44:34;;;;;;;11.93;6.50;;;26.20;64.30;;;;;;5081823;28;20437;-77
2023/10/10 11:47:07;;;;;;;9.13;6.43;;;26.30;64.60;;;;;;5074511;28;20461;-77
2023/10/10 11:49:36;;;;;;;8.83;6.80;;;26.50;64.30;;;;;;5088062;28;20445;-76
2023/10/10 11:52:08;;;;;;;9.30;6.90;;;27.10;63.20;;;;;;5083328;28;20416;-76
2023/10/10 11:54:44;;;;;;;10.07;6.50;;;27.10;61.80;;;;;;5077172;28;20512;-76
2023/10/10 11:57:15;;;;;;;6.43;5.83;;;27.10;62.10;;;;;;5089224;28;20447;-77
2023/10/10 11:59:44;;;;;;;10.03;6.50;;;27.40;62.90;;;;;;5079637;28;20453;-76
2023/10/10 12:02:18;;;;;;;7.30;5.87;;;28.70;64.00;;;;;;5090475;28;20947;-75
2023/10/10 12:04:46;;;;;;;6.63;5.93;;;29.80;58.30;;;;;;5079500;28;21021;-76
2023/10/10 12:07:18;;;;;;;7.60;6.80;;;30.20;56.50;;;;;;5075445;28;20460;-75
2023/10/10 12:09:47;;;;;;;30.63;14.67;;;29.90;56.10;;;;;;5091967;28;20449;-78
2023/10/10 12:12:16;;;;;;;26.63;16.30;;;28.90;57.50;;;;;;5098271;28;20536;-77
2023/10/10 12:14:45;;;;;;;28.97;17.70;;;28.20;59.60;;;;;;5102231;28;20480;-78
2023/10/10 12:17:14;;;;;;;22.53;13.80;;;28.00;61.80;;;;;;5088430;28;20834;-79
2023/10/10 12:19:43;;;;;;;32.10;20.57;;;28.50;61.80;;;;;;5101779;28;20442;-79
2023/10/10 12:22:12;;;;;;;46.57;21.20;;;27.90;60.90;;;;;;5091256;28;20459;-78
2023/10/10 12:24:41;;;;;;;30.50;20.37;;;26.80;65.70;;;;;;5097590;28;20449;-78
2023/10/10 12:27:10;;;;;;;29.63;20.27;;;27.10;65.20;;;;;;5096235;28;20447;-78
2023/10/10 12:29:40;;;;;;;36.70;21.60;;;26.40;67.90;;;;;;5099936;28;20480;-77
2023/10/10 12:34:54;;;;;;;40.30;23.00;;;26.70;67.90;;;;;;5102252;28;20415;-78
2023/10/10 12:37:23;;;;;;;41.13;22.87;;;26.70;66.90;;;;;;5095701;28;20472;-79
2023/10/10 12:39:53;;;;;;;37.73;23.27;;;27.30;64.30;;;;;;5094757;28;21046;-77
2023/10/10 12:42:21;;;;;;;32.70;19.27;;;27.50;64.90;;;;;;5101391;28;20954;-77
2023/10/10 12:44:49;;;;;;;32.13;18.70;;;28.40;65.60;;;;;;5091188;28;20441;-78
2023/10/10 12:47:19;;;;;;;41.27;22.97;;;28.30;62.20;;;;;;5105939;28;20429;-79
2023/10/10 12:49:47;;;;;;;38.03;23.10;;;27.10;63.10;;;;;;5097333;28;20499;-80
2023/10/10 12:52:17;;;;;;;37.23;22.33;;;26.70;66.50;;;;;;5104452;28;20433;-80
2023/10/10 12:54:46;;;;;;;39.80;23.77;;;26.60;65.80;;;;;;5109137;28;20414;-80
2023/10/10 12:57:16;;;;;;;40.40;23.60;;;26.40;65.40;;;;;;5105950;28;20471;-80
2023/10/10 12:59:47;;;;;;;36.80;20.80;;;26.30;66.20;;;;;;5109910;28;20447;-80
2023/10/10 13:02:16;;;;;;;42.63;26.27;;;26.40;66.30;;;;;;5106012;28;20456;-80
2023/10/10 13:04:48;;;;;;;42.17;23.37;;;26.20;66.90;;;;;;5105154;28;21016;-80
2023/10/10 13:07:18;;;;;;;77.47;28.83;;;26.70;68.90;;;;;;5106487;28;20490;-78
2023/10/10 13:09:47;;;;;;;50.33;23.67;;;27.90;66.10;;;;;;5096543;28;20476;-78
2023/10/10 13:12:27;;;;;;;39.70;22.30;;;28.50;61.20;;;;;;5090309;28;20566;-78
2023/10/10 13:15:16;;;;;;;40.80;22.63;;;28.70;60.60;;;;;;5097428;28;20440;-78
2023/10/10 13:17:53;;;;;;;39.33;22.60;;;28.60;59.60;;;;;;5103095;28;20507;-78
2023/10/10 13:20:22;;;;;;;40.07;22.70;;;28.00;59.80;;;;;;5100603;28;20437;-78
2023/10/10 13:22:51;;;;;;;34.60;21.60;;;27.70;61.30;;;;;;5088120;28;20491;-77
2023/10/10 13:25:20;;;;;;;39.80;23.53;;;27.20;62.20;;;;;;5095271;28;20422;-77
2023/10/10 13:27:52;;;;;;;40.27;24.00;;;26.60;64.20;;;;;;5091145;28;20443;-77
2023/10/10 13:30:20;;;;;;;43.97;23.87;;;26.40;65.10;;;;;;5093036;28;20436;-78
2023/10/10 13:32:48;;;;;;;38.07;22.07;;;26.30;66.80;;;;;;5093641;28;20460;-80
2023/10/10 13:35:19;;;;;;;40.03;22.80;;;26.10;66.60;;;;;;5096255;28;20514;-79
2023/10/10 13:37:48;;;;;;;41.87;22.73;;;25.90;66.80;;;;;;5090630;28;20474;-79
2023/10/10 13:40:22;;;;;;;41.50;22.70;;;25.70;67.60;;;;;;5093846;28;20485;-79
2023/10/10 13:42:51;;;;;;;35.73;21.73;;;25.60;67.80;;;;;;5098957;28;20418;-80
2023/10/10 13:45:22;;;;;;;40.50;20.47;;;25.50;68.50;;;;;;5104305;28;20541;-80
2023/10/10 13:47:50;;;;;;;38.23;21.30;;;25.50;69.30;;;;;;5105161;28;20449;-79
2023/10/10 13:50:40;;;;;;;35.07;21.43;;;25.40;68.70;;;;;;5102416;28;20435;-79
2023/10/10 13:53:11;;;;;;;39.23;23.20;;;25.30;69.00;;;;;;5103229;28;20403;-79
2023/10/10 13:55:43;;;;;;;41.07;21.17;;;25.40;69.50;;;;;;5095553;28;20499;-79
2023/10/10 13:58:13;;;;;;;43.70;21.93;;;25.60;69.70;;;;;;5097460;28;20476;-79
2023/10/10 14:00:43;;;;;;;33.77;19.67;;;25.50;68.50;;;;;;5102158;28;20471;-79
2023/10/10 14:03:14;;;;;;;36.53;20.00;;;25.50;68.80;;;;;;5106032;28;20412;-80
2023/10/10 14:06:00;;;;;;;39.47;21.93;;;25.50;70.20;;;;;;5090560;28;21155;-79
2023/10/10 14:08:30;;;;;;;40.30;20.17;;;25.40;68.80;;;;;;5088219;28;20477;-79
2023/10/10 14:11:00;;;;;;;32.40;17.30;;;25.70;70.00;;;;;;5095321;28;20467;-81
2023/10/10 14:13:30;;;;;;;29.60;16.10;;;26.10;68.30;;;;;;5110573;28;20411;-81
2023/10/10 14:15:59;;;;;;;32.37;14.43;;;26.40;67.00;;;;;;5095365;28;20473;-81
2023/10/10 14:18:28;;;;;;;28.27;14.00;;;26.60;66.00;;;;;;5092939;28;20476;-82
2023/10/10 14:20:56;;;;;;;24.83;13.47;;;26.70;65.10;;;;;;5102247;28;20491;-81
2023/10/10 14:23:25;;;;;;;29.63;13.37;;;26.80;64.70;;;;;;5107129;28;20480;-80
2023/10/10 14:26:03;;;;;;;24.77;12.70;;;26.90;64.50;;;;;;5098464;28;20528;-82
2023/10/10 14:28:33;;;;;;;21.33;12.50;;;26.90;64.10;;;;;;5097314;28;20442;-82
2023/10/10 14:31:03;;;;;;;27.03;12.73;;;26.90;64.00;;;;;;5098659;28;20427;-81
2023/10/10 14:33:31;;;;;;;30.20;12.93;;;27.00;64.00;;;;;;5098738;28;20416;-80
2023/10/10 14:36:02;;;;;;;26.30;11.83;;;27.00;63.60;;;;;;5100503;28;20448;-81
2023/10/10 14:38:31;;;;;;;20.43;11.40;;;27.00;63.70;;;;;;5103377;28;20423;-82
2023/10/10 14:41:01;;;;;;;23.80;10.90;;;27.00;63.50;;;;;;5096230;28;20411;-82
2023/10/10 14:43:29;;;;;;;24.40;10.50;;;27.10;63.50;;;;;;5100451;28;20437;-81
2023/10/10 14:45:58;;;;;;;23.53;10.80;;;27.10;63.40;;;;;;5107670;28;20469;-83
2023/10/10 14:48:30;;;;;;;19.00;10.60;;;27.10;63.20;;;;;;5096110;28;20420;-80
2023/10/10 14:50:58;;;;;;;18.40;10.20;;;27.10;63.20;;;;;;5100226;28;20433;-81
2023/10/10 14:53:27;;;;;;;23.27;9.80;;;27.00;63.10;;;;;;5092729;28;20443;-81
2023/10/10 14:55:55;;;;;;;20.07;10.50;;;27.00;63.10;;;;;;5108692;28;20464;-81
2023/10/10 14:58:23;;;;;;;16.60;10.13;;;27.00;63.30;;;;;;5098811;28;20447;-82
2023/10/10 15:00:56;;;;;;;16.10;9.63;;;27.00;63.10;;;;;;5102762;28;20419;-82
2023/10/10 15:03:27;;;;;;;18.40;9.63;;;27.00;63.10;;;;;;5101042;28;20411;-81
2023/10/10 15:06:06;;;;;;;15.13;9.87;;;27.00;63.20;;;;;;5103026;28;20431;-80
2023/10/10 15:08:34;;;;;;;20.67;9.90;;;27.00;63.10;;;;;;5103389;28;20521;-80
2023/10/10 15:11:06;;;;;;;15.20;10.20;;;27.00;63.10;;;;;;5093426;28;20445;-78
2023/10/10 15:13:35;;;;;;;17.77;9.57;;;27.00;63.10;;;;;;5090229;28;20407;-78
2023/10/10 15:16:09;;;;;;;18.93;9.77;;;27.00;63.20;;;;;;5095088;28;20560;-79
2023/10/10 15:18:40;;;;;;;21.10;10.10;;;27.00;62.90;;;;;;5089187;28;20471;-79
2023/10/10 15:21:12;;;;;;;19.20;10.20;;;27.00;63.10;;;;;;5085996;28;20401;-78
2023/10/10 15:23:42;;;;;;;15.03;9.37;;;27.00;63.10;;;;;;5086072;28;20424;-78